الصفحة الرئيسية
METAR-TAF:

METAR-TAF

مطار :

مدينة همدان, إيران

دائرة عرض: 34-52-05N, خط طول: 048-33-08E, ارتفاع: 1757 متر

مراقبة الطقس الحالي

تاريخ ووقت الإصدار 1ساعة و 12 دقيقة قبل الساعة 22:52UTC
ريح 6 عقدة من الغرب
درجة الحرارة 1°درجة مئوية
الرطوبة 80%
ضغط 1017 hPa
الرؤية 10 كم أو أكثر
غيوم متفرقة على ارتفاع 3000 قدم, مزنة ركامية.
غيوم مفككة على ارتفاع 3500 قدم

METAR: OIHH 242252Z 28006KT 9999 SCT030CB BKN035 01/M02 Q1017

زمن: 04:34 (00:04 UTC)


TAF: مفقودة

أرصاد الطقس والتوقعات من أكثر من 4000 مطار (تقارير الطقس للمطار METAR والتنبؤ بالطقس بالمطارTAF).

المحطات المتاحة هي النقط الصفراء والحمراء على الخريطة.

حرك المؤشر فوق النقطة لمعرفة اسم المحطة.

ثم انقر لمعرفة أرصاد وتوقعات الطقس.

لتغيير الخارطة: اضغط على الأزرار الخضراء مع رمز الصليب الأسود للتكبير. على الزر الأخضر مع شرطة للتصغير، أو على الأسهم الخضراء للخرائط المجاورة.


METAR-TAF: